Ride Results

NEEEC Saeed Almaktoum Endurance 66 Marathon (25-03-2016)
Ride distance: 80.0 km

Outcomes - NEEEC Saeed Almaktoum Endurance 66 Marathon (25-03-2016)
Division No. of Entries Retired / DNE Completed Withdrawn Ineligible V/O Percentage Completed
HW 2 - 0 - - 2 0.00%
MW 9 - 7 - - 2 77.78%
LW 7 - 4 - - 3 57.14%
JN 4 - 3 - - 1 75.00%
Totals 22 - 14 - - 8 63.64%
Results - NEEEC Saeed Almaktoum Endurance 66 Marathon (25-03-2016)
No. Rider Horse Place Time Leg Speeds Total
Km/Hr
H/R bpm
Heavyweight
G Greg Henry Bellawongarah Beau Lame L2 0:00:00 15.4, 10.6 - 37, 44, 57 (Avg:50)
109 David Campbell Awarran Park Silver Raven Lame L1 0:00:00 14.3 - 33, 47 (Avg:47)
Middleweight
38 Tony Purton Beer Street Bewitched 1 (BC) 4:51:59 18.6, 14.6 16.44 32, 42, 46 (Avg:44)
165 Danielle Taylor Tierview Salama 2 4:54:06 15.9, 16.6 16.32 54, 49, 59 (Avg:54)
110 Amanda Campbell Davlyn Park Camille 3 6:04:56 14.3, 12.1 13.15 34, 42, 57 (Avg:49)
70 Linda Tanian AT Dial Range Raphael 4 7:23:31 11.2, 10.4 10.82 37, 43, 50 (Avg:46)
21 Karen Quinn Distinctive-L-Zarin (au) 5 7:27:50 11.9, 9.7 10.72 39, 47, 53 (Avg:50)
276 Naomi Maxwell Highland View Cracker Jack 6 7:27:59 11.9, 9.7 10.71 58, 53, 48 (Avg:50)
207 Graham Bucknell Kairo 7 7:40:08 12.9, 8.7 10.43 38, 48, 53 (Avg:50)
92 Blaine Astell Rollo Lame L2 0:00:00 10.2, 10.7 - 34, 49, 55 (Avg:52)
69 Tracey Wyllie Elphyn Ripple Heart Rate L2 0:00:00 11.3, 10.3 - 32, 39, 62 (Avg:50)
Lightweight
12 Anita Hutchins Castella Soldier Boy 1 (BC) 6:20:09 13.4, 11.9 12.63 33, 43, 52 (Avg:47)
186 Amelia Napier Rossi 2 6:59:29 11.2, 11.6 11.44 32, 45, 49 (Avg:47)
74 Felicity Perry Jaggah Ka 3 7:23:28 11.3, 10.3 10.82 37, 39, 58 (Avg:48)
90 Angela Hawks Kiss Of Fame 4 7:36:45 10.2, 10.7 10.51 45, 46, 54 (Avg:50)
125 Brooke Brown-Cordell Vandieman Tyra Lame L2 0:00:00 15.9, 16.6 - 34, 43, 45 (Avg:44)
231 Andrew Matthews Shemali Saladin Lame L2 0:00:00 15.4, 10.6 - 39, 48, 52 (Avg:50)
305 Julie Carter Kalody Park Pure Steel Lame L1 0:00:00 14.3 - 34, 46 (Avg:46)
Junior
127 Jaz Hutchins Corryone Rose of Ky 1 (BC) 7:04:21 11.1, 11.4 11.31 55, 49, 47 (Avg:48)
308 Ella Carter Karshna Ebony 2 7:36:49 10.3, 10.6 10.51 34, 42, 51 (Avg:46)
292 Holli Anthony OToole Foley-Jones Gypsy Rose 3 7:51:02 10.3, 10.0 10.19 30, 43, 52 (Avg:47)
209 Grace Huxtable Graceton TJ Tonka Heart Rate L2 0:00:00 11.2, 10.9 - 41, 53, 66 (Avg:59)